Time;durP1;ratioP1;P1;durP2;ratioP2;P2;SDS_P1;SDS_P2;PMS_P1;PMS_P2;Temp;Humidity;BMP_temperature;BMP_pressure;BME280_temperature;BME280_humidity;BME280_pressure;Samples;Min_cycle;Max_cycle;Signal;HPM_P1;HPM_P2
2022/04/09 00:00:13;;;;;;;7.63;1.73;;;5.70;83.20;;;;;;4997296;28;20041;-79
2022/04/09 00:02:39;;;;;;;7.43;1.88;;;5.70;83.40;;;;;;4997320;28;20038;-79
2022/04/09 00:05:06;;;;;;;10.65;2.40;;;5.70;83.40;;;;;;5013502;28;20038;-78
2022/04/09 00:07:31;;;;;;;9.00;2.05;;;5.70;83.40;;;;;;5013672;28;20041;-78
2022/04/09 00:09:57;;;;;;;12.25;2.70;;;5.70;83.40;;;;;;5013879;28;20458;-78
2022/04/09 00:12:23;;;;;;;9.73;2.60;;;5.60;83.60;;;;;;5013139;28;20050;-78
2022/04/09 00:14:48;;;;;;;8.45;1.75;;;5.60;83.40;;;;;;5013580;28;20037;-78
2022/04/09 00:17:14;;;;;;;6.30;1.98;;;5.60;83.40;;;;;;4996926;28;20041;-77
2022/04/09 00:19:40;;;;;;;4.63;1.60;;;5.60;83.00;;;;;;5013492;28;20044;-78
2022/04/09 00:22:05;;;;;;;6.03;1.33;;;5.60;83.00;;;;;;4997101;28;20505;-78
2022/04/09 00:24:31;;;;;;;10.73;1.63;;;5.60;82.90;;;;;;5013246;28;20461;-78
2022/04/09 00:26:57;;;;;;;8.35;2.13;;;5.60;83.20;;;;;;5013123;28;20085;-78
2022/04/09 00:29:22;;;;;;;8.07;2.75;;;5.60;83.30;;;;;;4996848;28;20045;-79
2022/04/09 00:31:48;;;;;;;14.60;2.38;;;5.60;83.60;;;;;;5012910;28;20042;-77
2022/04/09 00:34:14;;;;;;;9.90;2.85;;;5.60;83.50;;;;;;4980472;28;20046;-78
2022/04/09 00:36:40;;;;;;;7.90;1.40;;;5.60;83.60;;;;;;5013043;28;20062;-79
2022/04/09 00:39:05;;;;;;;11.75;2.17;;;5.60;83.60;;;;;;4996583;28;20116;-78
2022/04/09 00:41:31;;;;;;;8.52;1.95;;;5.50;83.40;;;;;;4996549;28;20037;-79
2022/04/09 00:43:57;;;;;;;5.50;1.83;;;5.50;83.60;;;;;;5012325;28;20038;-79
2022/04/09 00:46:22;;;;;;;1.92;0.60;;;5.50;83.40;;;;;;5013036;28;20042;-78
2022/04/09 00:48:49;;;;;;;2.90;0.73;;;5.60;83.10;;;;;;5012717;28;20528;-78
2022/04/09 00:51:15;;;;;;;4.38;0.77;;;5.60;83.20;;;;;;4996549;28;20115;-77
2022/04/09 00:53:42;;;;;;;6.03;0.70;;;5.40;83.70;;;;;;5012587;28;20478;-78
2022/04/09 00:56:13;;;;;;;5.15;0.88;;;5.30;83.50;;;;;;5012800;28;20566;-77
2022/04/09 00:58:55;;;;;;;1.77;0.60;;;5.30;83.30;;;;;;5012587;28;20046;-78
2022/04/09 01:01:28;;;;;;;4.65;0.80;;;5.20;83.60;;;;;;5012773;28;20402;-78
2022/04/09 01:03:55;;;;;;;3.67;0.60;;;5.10;83.40;;;;;;5012709;28;20042;-78
2022/04/09 01:06:21;;;;;;;3.60;0.77;;;5.10;83.60;;;;;;5012450;28;20044;-78
2022/04/09 01:08:47;;;;;;;4.90;1.02;;;5.10;83.70;;;;;;5012280;28;20046;-78
2022/04/09 01:11:14;;;;;;;6.38;1.38;;;5.10;84.00;;;;;;4995922;28;20084;-77
2022/04/09 01:13:46;;;;;;;8.25;2.10;;;5.10;84.30;;;;;;5012212;28;20034;-77
2022/04/09 01:16:12;;;;;;;5.72;2.42;;;5.10;84.50;;;;;;5012339;28;20037;-78
2022/04/09 01:18:41;;;;;;;7.15;2.25;;;5.10;84.70;;;;;;5012299;28;20064;-77
2022/04/09 01:21:07;;;;;;;6.57;1.40;;;5.10;84.90;;;;;;5012278;28;20042;-78
2022/04/09 01:23:33;;;;;;;5.43;1.50;;;5.10;85.20;;;;;;5012067;28;20042;-78
2022/04/09 01:26:00;;;;;;;5.53;1.10;;;5.20;85.60;;;;;;4996077;28;20263;-77
2022/04/09 01:28:26;;;;;;;4.25;1.10;;;5.20;85.50;;;;;;5012389;28;20068;-78
2022/04/09 01:30:52;;;;;;;6.20;1.00;;;5.20;85.10;;;;;;5012076;28;20041;-78
2022/04/09 01:33:19;;;;;;;6.50;1.23;;;5.40;84.40;;;;;;5011984;28;20208;-78
2022/04/09 01:35:46;;;;;;;8.48;1.50;;;5.40;84.10;;;;;;4979673;28;20042;-78
2022/04/09 01:38:12;;;;;;;8.60;1.35;;;5.30;84.60;;;;;;5011815;28;20145;-78
2022/04/09 01:40:38;;;;;;;5.13;1.15;;;5.40;84.20;;;;;;5012016;28;20536;-78
2022/04/09 01:43:04;;;;;;;7.30;1.08;;;5.40;84.00;;;;;;5011856;28;20042;-79
2022/04/09 01:45:30;;;;;;;5.95;0.85;;;5.40;83.90;;;;;;5012190;28;20057;-78
2022/04/09 01:47:58;;;;;;;5.20;1.23;;;5.40;84.00;;;;;;4995551;28;20045;-78
2022/04/09 01:50:26;;;;;;;7.72;1.08;;;5.30;83.80;;;;;;5011817;28;20045;-79
2022/04/09 01:52:52;;;;;;;8.20;1.20;;;5.20;83.80;;;;;;4995689;28;20038;-79
2022/04/09 01:55:18;;;;;;;7.30;1.10;;;5.20;83.70;;;;;;5011701;28;20048;-77
2022/04/09 01:57:44;;;;;;;7.47;1.30;;;5.30;83.40;;;;;;5015464;28;20038;-77
2022/04/09 02:00:12;;;;;;;8.63;1.45;;;5.20;83.30;;;;;;5015882;28;20044;-78
2022/04/09 02:02:38;;;;;;;4.93;1.17;;;5.30;83.30;;;;;;4983566;28;20045;-77
2022/04/09 02:05:04;;;;;;;10.48;1.33;;;5.30;82.70;;;;;;5015693;28;20050;-78
2022/04/09 02:07:30;;;;;;;8.32;0.80;;;5.50;81.30;;;;;;4999664;28;20395;-77
2022/04/09 02:09:56;;;;;;;3.97;0.80;;;5.50;81.10;;;;;;5015679;28;20042;-78
2022/04/09 02:12:21;;;;;;;8.90;1.25;;;5.50;81.70;;;;;;5015714;28;20045;-78
2022/04/09 02:14:47;;;;;;;7.63;2.55;;;5.40;82.30;;;;;;5015842;28;20387;-76
2022/04/09 02:17:13;;;;;;;4.50;0.80;;;5.30;82.60;;;;;;5015717;28;20482;-79
2022/04/09 02:19:39;;;;;;;4.13;0.98;;;5.20;83.10;;;;;;5015397;28;20041;-77
2022/04/09 02:22:06;;;;;;;5.25;1.08;;;5.20;83.30;;;;;;4999058;28;20045;-78
2022/04/09 02:24:32;;;;;;;3.95;1.10;;;5.20;83.60;;;;;;4999069;28;20053;-78
2022/04/09 02:26:58;;;;;;;8.80;1.55;;;5.10;84.00;;;;;;4999012;28;20041;-77
2022/04/09 02:29:24;;;;;;;6.88;1.77;;;5.10;84.50;;;;;;4999196;28;20050;-78
2022/04/09 02:31:49;;;;;;;8.30;1.30;;;5.00;84.60;;;;;;5015052;28;20053;-79
2022/04/09 02:34:15;;;;;;;10.55;2.20;;;5.00;85.10;;;;;;4998994;28;20084;-78
2022/04/09 02:36:41;;;;;;;7.90;1.95;;;5.00;85.50;;;;;;5014957;28;20046;-78
2022/04/09 02:39:07;;;;;;;5.82;1.17;;;4.90;85.60;;;;;;5015365;28;20046;-76
2022/04/09 02:41:33;;;;;;;4.75;1.40;;;4.80;86.10;;;;;;5015093;28;20121;-79
2022/04/09 02:43:59;;;;;;;8.52;1.52;;;4.80;86.30;;;;;;5014996;28;20110;-77
2022/04/09 02:46:25;;;;;;;5.15;1.25;;;4.80;86.20;;;;;;4982686;28;20110;-77
2022/04/09 02:48:51;;;;;;;9.50;1.55;;;4.80;86.80;;;;;;5014888;28;20180;-79
2022/04/09 02:51:18;;;;;;;11.50;2.13;;;4.80;86.60;;;;;;5014804;28;20129;-77
2022/04/09 02:53:44;;;;;;;8.40;1.55;;;4.70;86.80;;;;;;4998396;28;20049;-78
2022/04/09 02:56:11;;;;;;;7.95;1.50;;;4.70;86.90;;;;;;5014792;28;20092;-78
2022/04/09 02:58:36;;;;;;;7.97;1.48;;;4.70;87.30;;;;;;5014987;28;20040;-78
2022/04/09 03:01:02;;;;;;;12.73;3.67;;;4.60;87.20;;;;;;4998491;28;20549;-79
2022/04/09 03:03:28;;;;;;;7.72;1.88;;;4.70;87.40;;;;;;4998205;28;20057;-77
2022/04/09 03:05:53;;;;;;;10.25;2.65;;;4.70;87.40;;;;;;5014663;28;20042;-79
2022/04/09 03:08:19;;;;;;;14.25;3.30;;;4.70;87.40;;;;;;5014380;28;20038;-79
2022/04/09 03:10:45;;;;;;;5.85;1.70;;;4.70;87.50;;;;;;5014591;28;20050;-79
2022/04/09 03:13:10;;;;;;;6.03;1.70;;;4.70;87.40;;;;;;4981831;28;20042;-77
2022/04/09 03:15:36;;;;;;;10.65;2.05;;;4.70;87.40;;;;;;4998212;28;20038;-78
2022/04/09 03:18:02;;;;;;;4.32;0.98;;;4.70;87.20;;;;;;4998148;28;20041;-78
2022/04/09 03:20:28;;;;;;;3.65;0.98;;;4.70;87.10;;;;;;4998046;28;20038;-78
2022/04/09 03:22:54;;;;;;;6.18;1.98;;;4.80;86.60;;;;;;5014276;28;20447;-77
2022/04/09 03:25:20;;;;;;;6.28;1.02;;;4.80;86.00;;;;;;5014325;28;20068;-78
2022/04/09 03:27:45;;;;;;;8.75;1.17;;;4.90;85.50;;;;;;5013501;28;20065;-78
2022/04/09 03:30:11;;;;;;;7.03;1.60;;;4.90;85.40;;;;;;5014242;28;20053;-78
2022/04/09 03:32:38;;;;;;;7.80;1.55;;;4.90;85.30;;;;;;5014020;28;20053;-78
2022/04/09 03:35:07;;;;;;;7.05;2.30;;;4.90;85.30;;;;;;5014123;28;20046;-78
2022/04/09 03:37:37;;;;;;;7.70;1.50;;;4.90;85.20;;;;;;5014063;28;20422;-77
2022/04/09 03:40:05;;;;;;;10.75;1.33;;;4.90;85.60;;;;;;5013983;28;20076;-78
2022/04/09 03:42:31;;;;;;;6.07;1.60;;;4.80;85.80;;;;;;5013995;28;20095;-78
2022/04/09 03:44:57;;;;;;;10.68;1.77;;;4.90;85.80;;;;;;4997795;28;20517;-78
2022/04/09 03:47:23;;;;;;;9.75;2.17;;;4.80;85.70;;;;;;4997751;28;20050;-78
2022/04/09 03:49:49;;;;;;;13.25;2.15;;;4.80;85.80;;;;;;4997708;28;20491;-77
2022/04/09 03:52:15;;;;;;;5.05;1.52;;;4.80;85.90;;;;;;5013805;28;20049;-77
2022/04/09 03:54:41;;;;;;;12.40;1.70;;;4.80;85.90;;;;;;5013963;28;20038;-77
2022/04/09 03:57:07;;;;;;;6.32;1.70;;;4.90;86.00;;;;;;5013731;28;20051;-79
2022/04/09 03:59:33;;;;;;;8.50;3.22;;;5.00;86.10;;;;;;5013606;28;20050;-77
2022/04/09 04:01:58;;;;;;;9.93;1.88;;;5.00;86.00;;;;;;4997259;28;20050;-78
2022/04/09 04:04:24;;;;;;;8.88;2.05;;;5.00;86.10;;;;;;5013812;28;20040;-78
2022/04/09 04:06:50;;;;;;;4.80;1.20;;;5.00;86.10;;;;;;5013600;28;20128;-79
2022/04/09 04:09:16;;;;;;;7.82;1.60;;;5.10;86.10;;;;;;5013472;28;20453;-78
2022/04/09 04:11:45;;;;;;;9.57;2.33;;;5.20;85.80;;;;;;5013513;28;20379;-78
2022/04/09 04:14:12;;;;;;;5.65;1.20;;;5.30;85.50;;;;;;5013354;28;20037;-79
2022/04/09 04:16:40;;;;;;;6.50;1.88;;;5.30;85.40;;;;;;5013366;28;20041;-78
2022/04/09 04:19:06;;;;;;;6.35;1.45;;;5.30;85.30;;;;;;5012904;28;20124;-79
2022/04/09 04:21:32;;;;;;;4.93;1.05;;;5.30;85.00;;;;;;4997134;28;20517;-77
2022/04/09 04:23:57;;;;;;;5.35;1.40;;;5.30;84.40;;;;;;4996960;28;20479;-77
2022/04/09 04:26:23;;;;;;;8.60;1.60;;;5.30;83.90;;;;;;4996849;28;20053;-79
2022/04/09 04:28:49;;;;;;;5.05;1.00;;;5.30;84.00;;;;;;4980578;28;20384;-77
2022/04/09 04:31:16;;;;;;;10.15;2.15;;;5.30;83.90;;;;;;4997083;28;20045;-77
2022/04/09 04:33:42;;;;;;;7.70;1.45;;;5.30;83.80;;;;;;4996478;28;20038;-79
2022/04/09 04:36:07;;;;;;;9.30;1.40;;;5.30;84.00;;;;;;5012921;28;20553;-77
2022/04/09 04:38:33;;;;;;;9.85;2.25;;;5.30;83.90;;;;;;5012705;28;20062;-79
2022/04/09 04:41:00;;;;;;;4.00;1.25;;;5.40;84.20;;;;;;5012737;28;20049;-77
2022/04/09 04:43:26;;;;;;;4.30;0.70;;;5.30;83.40;;;;;;5012723;28;20045;-79
2022/04/09 04:45:51;;;;;;;1.10;0.40;;;5.10;81.40;;;;;;4996388;28;20053;-78
2022/04/09 04:48:20;;;;;;;3.97;0.60;;;5.10;80.00;;;;;;5012694;28;20063;-78
2022/04/09 04:50:46;;;;;;;4.95;0.95;;;5.10;79.70;;;;;;4996727;28;20057;-78
2022/04/09 04:53:12;;;;;;;4.28;0.85;;;5.10;80.10;;;;;;5012572;28;20041;-79
2022/04/09 04:55:38;;;;;;;5.40;1.35;;;5.10;80.70;;;;;;5012652;28;20135;-78
2022/04/09 04:58:04;;;;;;;5.20;1.55;;;5.10;81.50;;;;;;5012544;28;20587;-79
2022/04/09 05:00:30;;;;;;;5.82;1.45;;;5.10;82.60;;;;;;5012531;28;20034;-78
2022/04/09 05:02:57;;;;;;;5.10;1.38;;;5.10;83.90;;;;;;5012448;28;20045;-79
2022/04/09 05:05:24;;;;;;;8.30;1.85;;;5.10;84.40;;;;;;5012735;28;20041;-78
2022/04/09 05:07:51;;;;;;;6.63;1.48;;;5.10;85.00;;;;;;4980244;28;20087;-76
2022/04/09 05:10:19;;;;;;;7.25;1.50;;;5.00;85.50;;;;;;5012383;28;20513;-77
2022/04/09 05:12:45;;;;;;;15.50;2.65;;;5.00;85.70;;;;;;5012175;28;20050;-77
2022/04/09 05:15:16;;;;;;;7.90;1.77;;;4.90;85.90;;;;;;5012657;28;20387;-78
2022/04/09 05:17:42;;;;;;;6.03;1.10;;;4.90;86.20;;;;;;5012737;28;20034;-78
2022/04/09 05:20:11;;;;;;;7.07;2.63;;;4.90;86.10;;;;;;5012261;28;20046;-77
2022/04/09 05:22:41;;;;;;;8.35;1.48;;;4.90;85.90;;;;;;5012197;28;20041;-78
2022/04/09 05:25:08;;;;;;;7.20;0.90;;;5.00;85.90;;;;;;5012049;28;20046;-78
2022/04/09 05:27:33;;;;;;;10.93;1.55;;;5.10;85.30;;;;;;4995828;28;20052;-77
2022/04/09 05:29:59;;;;;;;9.27;2.10;;;5.10;85.40;;;;;;4995541;28;20049;-79
2022/04/09 05:32:25;;;;;;;5.85;1.40;;;5.10;85.30;;;;;;4995155;28;20045;-78
2022/04/09 05:34:51;;;;;;;10.07;2.35;;;5.20;85.30;;;;;;5012011;28;20402;-77
2022/04/09 05:37:17;;;;;;;7.80;1.48;;;5.10;85.40;;;;;;5011857;28;20058;-77
2022/04/09 05:39:43;;;;;;;9.95;1.65;;;5.20;85.70;;;;;;4995591;28;20099;-76
2022/04/09 05:42:12;;;;;;;12.57;3.58;;;5.20;85.70;;;;;;5012144;28;20395;-78
2022/04/09 05:44:38;;;;;;;10.55;1.90;;;5.30;86.00;;;;;;5011973;28;20045;-78
2022/04/09 05:47:04;;;;;;;10.50;1.73;;;5.20;86.00;;;;;;4995695;28;20104;-77
2022/04/09 05:49:29;;;;;;;8.93;1.60;;;5.20;86.00;;;;;;5012273;28;20124;-79
2022/04/09 05:51:55;;;;;;;6.45;1.60;;;5.30;86.00;;;;;;5011716;28;20509;-79
2022/04/09 05:54:21;;;;;;;10.55;1.83;;;5.30;85.90;;;;;;5012049;28;20044;-78
2022/04/09 05:56:47;;;;;;;12.98;1.98;;;5.40;85.90;;;;;;5012111;28;20045;-77
2022/04/09 05:59:12;;;;;;;7.18;1.98;;;5.40;85.70;;;;;;4979306;28;20541;-78
2022/04/09 06:01:39;;;;;;;9.05;3.25;;;5.50;85.80;;;;;;4995397;28;20038;-78
2022/04/09 06:04:06;;;;;;;9.73;2.15;;;5.60;85.60;;;;;;4995579;28;20042;-78
2022/04/09 06:06:32;;;;;;;5.70;0.95;;;5.70;85.80;;;;;;4979783;28;20076;-78
2022/04/09 06:08:58;;;;;;;2.88;0.80;;;5.70;85.00;;;;;;5011927;28;20368;-78
2022/04/09 06:11:24;;;;;;;2.80;0.60;;;5.60;83.70;;;;;;5011586;28;20045;-78
2022/04/09 06:13:50;;;;;;;3.05;0.80;;;5.30;82.10;;;;;;4995516;28;20073;-80
2022/04/09 06:16:16;;;;;;;6.95;1.30;;;5.40;80.40;;;;;;5011916;28;20469;-78
2022/04/09 06:18:42;;;;;;;8.63;1.85;;;5.50;81.50;;;;;;5011648;28;20038;-75
2022/04/09 06:21:09;;;;;;;4.40;1.40;;;5.50;82.20;;;;;;5011860;28;20042;-79
2022/04/09 06:23:35;;;;;;;11.95;2.03;;;5.50;82.80;;;;;;5011717;28;20042;-79
2022/04/09 06:26:01;;;;;;;7.30;1.60;;;5.40;83.60;;;;;;5011555;28;20502;-77
2022/04/09 06:28:27;;;;;;;7.45;1.30;;;5.30;84.20;;;;;;5011560;28;20038;-80
2022/04/09 06:30:53;;;;;;;7.25;2.03;;;5.30;85.00;;;;;;5011487;28;20046;-77
2022/04/09 06:33:20;;;;;;;7.53;2.10;;;5.50;85.40;;;;;;5011315;28;20050;-79
2022/04/09 06:35:47;;;;;;;8.13;2.75;;;5.50;85.90;;;;;;4995671;28;20045;-79
2022/04/09 06:38:13;;;;;;;10.82;1.38;;;5.60;85.70;;;;;;5011257;28;20054;-78
2022/04/09 06:40:39;;;;;;;8.13;1.45;;;5.70;86.00;;;;;;4978986;28;20096;-77
2022/04/09 06:43:05;;;;;;;5.95;1.33;;;5.70;85.90;;;;;;4997523;28;20081;-78
2022/04/09 06:45:31;;;;;;;5.75;1.02;;;5.70;85.30;;;;;;5015025;28;20038;-77
2022/04/09 06:47:57;;;;;;;3.95;0.93;;;5.80;83.70;;;;;;5015364;28;20132;-78
2022/04/09 06:50:23;;;;;;;5.82;1.60;;;5.80;83.50;;;;;;5014956;28;20562;-78
2022/04/09 06:52:48;;;;;;;3.50;0.90;;;5.90;83.10;;;;;;4982147;28;20045;-80
2022/04/09 06:55:14;;;;;;;4.93;1.63;;;5.90;82.50;;;;;;5014827;28;20076;-77
2022/04/09 06:57:44;;;;;;;8.93;1.30;;;5.80;82.40;;;;;;4998712;28;20056;-79
2022/04/09 07:00:16;;;;;;;6.13;1.42;;;5.80;82.50;;;;;;5015122;28;20065;-78
2022/04/09 07:02:42;;;;;;;4.63;1.20;;;5.80;82.60;;;;;;5014784;28;20045;-79
2022/04/09 07:05:09;;;;;;;7.90;1.35;;;5.80;82.90;;;;;;5014911;28;20038;-77
2022/04/09 07:07:35;;;;;;;5.35;1.30;;;5.90;82.70;;;;;;4982404;28;20038;-78
2022/04/09 07:10:09;;;;;;;8.38;1.55;;;6.00;82.50;;;;;;5014597;28;20045;-77
2022/04/09 07:12:36;;;;;;;9.00;1.92;;;6.10;82.70;;;;;;5014428;28;20037;-79
2022/04/09 07:15:03;;;;;;;10.15;2.05;;;6.20;82.50;;;;;;5014542;28;20033;-79
2022/04/09 07:17:29;;;;;;;6.57;1.58;;;6.20;82.50;;;;;;5014522;28;20037;-78
2022/04/09 07:20:04;;;;;;;5.32;1.33;;;6.30;82.70;;;;;;5014699;28;20041;-79
2022/04/09 07:22:31;;;;;;;12.70;3.13;;;6.40;82.20;;;;;;5014684;28;20398;-78
2022/04/09 07:24:57;;;;;;;10.90;1.48;;;6.60;81.70;;;;;;5014374;28;20053;-77
2022/04/09 07:27:40;;;;;;;6.20;1.35;;;6.70;81.60;;;;;;4998279;28;20038;-78
2022/04/09 07:30:08;;;;;;;9.60;1.58;;;6.80;81.70;;;;;;5014296;28;20088;-78
2022/04/09 07:32:34;;;;;;;7.82;1.52;;;7.00;81.00;;;;;;5014079;28;20042;-79
2022/04/09 07:35:00;;;;;;;5.68;0.98;;;7.00;80.80;;;;;;5014451;28;20080;-79
2022/04/09 07:37:26;;;;;;;4.72;0.88;;;7.10;80.50;;;;;;5014018;28;20136;-79
2022/04/09 07:39:52;;;;;;;5.78;1.25;;;7.10;78.70;;;;;;5014352;28;20049;-79
2022/04/09 07:42:20;;;;;;;5.10;0.90;;;7.10;78.40;;;;;;5013916;28;20518;-79
2022/04/09 07:44:45;;;;;;;4.20;1.17;;;7.10;79.10;;;;;;4997884;28;20111;-79
2022/04/09 07:47:12;;;;;;;2.33;1.02;;;7.10;79.50;;;;;;5014177;28;20542;-79
2022/04/09 07:49:44;;;;;;;1.65;0.80;;;7.10;79.50;;;;;;4997792;28;20045;-80
2022/04/09 07:52:11;;;;;;;3.42;1.02;;;7.10;77.30;;;;;;4981646;28;20042;-80
2022/04/09 07:54:37;;;;;;;4.78;0.63;;;7.20;76.80;;;;;;5012793;28;20117;-80
2022/04/09 07:57:03;;;;;;;7.15;1.02;;;7.30;77.50;;;;;;4997418;28;20053;-79
2022/04/09 07:59:29;;;;;;;8.80;0.88;;;7.30;77.00;;;;;;4997613;28;20372;-80
2022/04/09 08:01:55;;;;;;;5.90;1.00;;;7.30;76.00;;;;;;5013734;28;20092;-80
2022/04/09 08:04:20;;;;;;;3.45;1.40;;;7.40;75.50;;;;;;4997659;28;20042;-78
2022/04/09 08:06:46;;;;;;;3.15;1.10;;;7.40;76.40;;;;;;5013621;28;20475;-79
2022/04/09 08:09:12;;;;;;;4.60;0.90;;;7.40;76.80;;;;;;5013899;28;20038;-80
2022/04/09 08:11:38;;;;;;;7.15;1.50;;;7.50;77.10;;;;;;5013738;28;20042;-79
2022/04/09 08:14:04;;;;;;;11.98;1.42;;;7.50;77.60;;;;;;5013778;28;20450;-80
2022/04/09 08:16:29;;;;;;;7.22;1.40;;;7.50;77.50;;;;;;5013501;28;20033;-82
2022/04/09 08:18:55;;;;;;;7.40;1.25;;;7.60;77.40;;;;;;5013876;28;20044;-79
2022/04/09 08:21:21;;;;;;;8.15;2.00;;;7.60;77.90;;;;;;5014611;28;20096;-80
2022/04/09 08:23:47;;;;;;;5.40;1.15;;;7.70;77.90;;;;;;4964732;28;20042;-79
2022/04/09 08:26:13;;;;;;;4.85;1.63;;;7.70;77.50;;;;;;5013727;28;20189;-80
2022/04/09 08:28:39;;;;;;;9.73;1.98;;;7.70;77.60;;;;;;4997253;28;20081;-79
2022/04/09 08:31:06;;;;;;;9.10;1.77;;;7.70;77.70;;;;;;4997282;28;20080;-79
2022/04/09 08:33:31;;;;;;;11.60;1.65;;;7.80;77.90;;;;;;4996911;28;20038;-79
2022/04/09 08:35:58;;;;;;;8.05;1.23;;;7.90;77.70;;;;;;5013632;28;20091;-80
2022/04/09 08:38:23;;;;;;;8.80;1.50;;;7.90;76.20;;;;;;4996580;28;20061;-79
2022/04/09 08:40:50;;;;;;;8.18;1.98;;;7.90;73.60;;;;;;4980529;28;20042;-79
2022/04/09 08:43:16;;;;;;;5.05;1.10;;;7.90;73.10;;;;;;5013033;28;20041;-79
2022/04/09 08:45:42;;;;;;;5.75;1.88;;;7.90;73.30;;;;;;4996677;28;20038;-79
2022/04/09 08:48:09;;;;;;;6.60;1.80;;;8.00;72.70;;;;;;5012801;28;20059;-79
2022/04/09 08:50:36;;;;;;;6.88;1.38;;;8.10;73.20;;;;;;5013087;28;20052;-80
2022/04/09 08:53:07;;;;;;;7.38;2.08;;;8.10;72.40;;;;;;5012796;28;20060;-81
2022/04/09 08:55:40;;;;;;;6.90;1.73;;;8.20;72.50;;;;;;4996662;28;20482;-80
2022/04/09 08:58:06;;;;;;;3.70;1.30;;;8.30;72.80;;;;;;5015065;28;20506;-79
2022/04/09 09:00:32;;;;;;;7.53;1.88;;;8.30;73.40;;;;;;5014784;28;20427;-80
2022/04/09 09:03:01;;;;;;;5.70;1.55;;;8.30;72.30;;;;;;5015173;28;20042;-80
2022/04/09 09:05:42;;;;;;;2.97;0.75;;;8.10;70.80;;;;;;4998393;28;20100;-80
2022/04/09 09:08:09;;;;;;;4.18;0.90;;;8.10;68.70;;;;;;4997637;28;20125;-80
2022/04/09 09:10:36;;;;;;;5.88;0.95;;;8.10;68.80;;;;;;4981558;28;20054;-80
2022/04/09 09:13:10;;;;;;;3.65;0.90;;;8.20;69.90;;;;;;5012954;28;20092;-80
2022/04/09 09:15:47;;;;;;;5.05;1.60;;;8.40;68.60;;;;;;4996146;28;20136;-80
2022/04/09 09:18:27;;;;;;;8.05;1.38;;;8.50;69.60;;;;;;4995988;28;20041;-80
2022/04/09 09:20:57;;;;;;;4.63;1.45;;;8.50;68.90;;;;;;4996194;28;20092;-80
2022/04/09 09:23:27;;;;;;;6.00;1.50;;;8.60;69.70;;;;;;4980023;28;20119;-79
2022/04/09 09:25:54;;;;;;;5.43;1.05;;;8.60;69.20;;;;;;4996169;28;20053;-81
2022/04/09 09:28:28;;;;;;;3.90;1.35;;;8.60;69.70;;;;;;4996052;28;20129;-80
2022/04/09 09:30:55;;;;;;;6.18;1.33;;;8.60;69.70;;;;;;4996394;28;20045;-80
2022/04/09 09:33:21;;;;;;;9.57;1.60;;;8.50;70.90;;;;;;4995787;28;20042;-81
2022/04/09 09:35:51;;;;;;;6.72;0.95;;;8.40;72.20;;;;;;4995945;28;20049;-80
2022/04/09 09:38:32;;;;;;;3.15;0.77;;;8.20;72.50;;;;;;5012013;28;20395;-80
2022/04/09 09:40:58;;;;;;;3.72;1.13;;;8.10;72.90;;;;;;4996268;28;20037;-81
2022/04/09 09:43:25;;;;;;;5.85;0.90;;;8.00;73.60;;;;;;4980168;28;20136;-80
2022/04/09 09:45:54;;;;;;;6.65;1.30;;;8.00;74.40;;;;;;5011803;28;20491;-80
2022/04/09 09:48:28;;;;;;;4.90;1.30;;;7.70;75.10;;;;;;5011931;28;20050;-79
2022/04/09 09:50:55;;;;;;;;;;;7.40;76.60;;;;;;5012334;28;20053;-79
2022/04/09 09:53:28;;;;;;;7.93;1.95;;;7.10;77.70;;;;;;5011725;28;20374;-80
2022/04/09 09:55:54;;;;;;;6.75;1.30;;;7.00;78.80;;;;;;5011919;28;20045;-80
2022/04/09 09:58:21;;;;;;;9.45;1.50;;;6.90;78.80;;;;;;5011907;28;20117;-80
2022/04/09 10:00:47;;;;;;;3.67;0.90;;;6.80;79.20;;;;;;4979384;28;20037;-80
2022/04/09 10:03:14;;;;;;;8.65;1.67;;;6.70;79.40;;;;;;4995706;28;20407;-81
2022/04/09 10:05:43;;;;;;;9.52;1.13;;;6.80;79.80;;;;;;4995446;28;20046;-80
2022/04/09 10:08:09;;;;;;;8.02;1.55;;;7.00;81.10;;;;;;4995758;28;20123;-80
2022/04/09 10:10:37;;;;;;;4.50;1.13;;;7.30;80.90;;;;;;4995689;28;20498;-80
2022/04/09 10:13:06;;;;;;;5.00;1.05;;;7.50;81.50;;;;;;5011857;28;20042;-80
2022/04/09 10:15:32;;;;;;;8.10;1.35;;;7.70;78.40;;;;;;5012140;28;20199;-80
2022/04/09 10:17:59;;;;;;;6.80;1.17;;;8.00;75.80;;;;;;4997764;28;20580;-80
2022/04/09 10:20:25;;;;;;;6.32;1.20;;;8.10;76.00;;;;;;4999585;28;20042;-80
2022/04/09 10:22:57;;;;;;;4.97;0.95;;;8.20;76.10;;;;;;4999196;28;20045;-80
2022/04/09 10:25:27;;;;;;;6.03;1.00;;;8.30;75.60;;;;;;5015788;28;20068;-80
2022/04/09 10:28:03;;;;;;;5.50;1.20;;;8.30;73.30;;;;;;5015543;28;20537;-80
2022/04/09 10:30:40;;;;;;;5.45;1.42;;;8.50;74.50;;;;;;4999598;28;20340;-80
2022/04/09 10:33:23;;;;;;;1.77;0.65;;;8.50;73.00;;;;;;4999214;28;20049;-80
2022/04/09 10:35:48;;;;;;;3.85;0.80;;;8.60;70.50;;;;;;5015279;28;20124;-80
2022/04/09 10:38:15;;;;;;;5.47;0.77;;;8.60;69.80;;;;;;4998827;28;20141;-80
2022/04/09 10:40:49;;;;;;;2.03;0.55;;;8.70;69.20;;;;;;5015366;28;20045;-80
2022/04/09 10:43:21;;;;;;;5.00;0.98;;;8.80;70.50;;;;;;5015673;28;20049;-81
2022/04/09 10:46:03;;;;;;;1.90;0.60;;;8.90;70.90;;;;;;4999077;28;20425;-80
2022/04/09 10:48:40;;;;;;;6.85;1.45;;;9.00;71.10;;;;;;5015376;28;20406;-80
2022/04/09 10:51:13;;;;;;;3.55;1.00;;;9.00;67.10;;;;;;4998979;28;20390;-80
2022/04/09 10:53:49;;;;;;;3.40;0.85;;;9.10;70.00;;;;;;5014892;28;20045;-81
2022/04/09 10:56:30;;;;;;;4.57;1.42;;;9.20;70.60;;;;;;5000181;28;20363;-81
2022/04/09 10:59:06;;;;;;;2.55;0.90;;;9.30;70.00;;;;;;4983841;28;20045;-81
2022/04/09 11:01:48;;;;;;;6.97;1.35;;;9.20;68.80;;;;;;5014951;28;20048;-80
2022/04/09 11:04:25;;;;;;;7.00;1.05;;;9.00;68.80;;;;;;5014829;28;20045;-80
2022/04/09 11:07:08;;;;;;;8.80;1.20;;;8.90;68.00;;;;;;4998457;28;20042;-80
2022/04/09 11:09:58;;;;;;;7.35;1.40;;;9.00;69.10;;;;;;4998462;28;20044;-80
2022/04/09 11:12:33;;;;;;;4.35;0.77;;;9.10;69.40;;;;;;5014596;28;20077;-81
2022/04/09 11:15:00;;;;;;;2.63;1.05;;;9.10;69.80;;;;;;4998544;28;20034;-80
2022/04/09 11:17:37;;;;;;;2.53;0.60;;;9.00;68.70;;;;;;5014477;28;20045;-80
2022/04/09 11:20:10;;;;;;;4.97;1.02;;;8.80;67.90;;;;;;4998396;28;20052;-80
2022/04/09 11:22:40;;;;;;;2.63;0.47;;;8.50;70.10;;;;;;4998260;28;20435;-80
2022/04/09 11:25:08;;;;;;;3.50;0.57;;;8.30;68.40;;;;;;5014671;28;20092;-80
2022/04/09 11:27:34;;;;;;;2.28;0.55;;;8.20;70.20;;;;;;5014522;28;20100;-80
2022/04/09 11:30:03;;;;;;;2.63;1.63;;;8.00;72.70;;;;;;5014164;28;20121;-80
2022/04/09 11:32:29;;;;;;;2.05;0.60;;;7.90;74.60;;;;;;5014324;28;20104;-80
2022/04/09 11:34:59;;;;;;;3.47;0.80;;;7.70;76.20;;;;;;5014224;28;20446;-80
2022/04/09 11:37:29;;;;;;;2.10;0.47;;;7.40;76.90;;;;;;4986744;28;20061;-80
2022/04/09 11:39:56;;;;;;;3.58;0.38;;;7.10;77.20;;;;;;5002424;28;20125;-81
2022/04/09 11:42:22;;;;;;;3.30;0.60;;;6.90;78.00;;;;;;5006497;28;20457;-81
2022/04/09 11:44:48;;;;;;;3.55;0.60;;;7.00;78.90;;;;;;5002159;28;20037;-81
2022/04/09 11:47:17;;;;;;;2.88;0.70;;;7.00;79.70;;;;;;5002938;28;20091;-82
2022/04/09 11:49:48;;;;;;;1.58;0.32;;;7.10;80.20;;;;;;4999835;28;20046;-81
2022/04/09 11:52:27;;;;;;;4.45;1.17;;;7.10;79.70;;;;;;5015173;28;20050;-81
2022/04/09 11:54:54;;;;;;;1.65;0.35;;;7.10;79.30;;;;;;5005250;28;20053;-81
2022/04/09 11:57:21;;;;;;;3.22;0.55;;;7.20;77.80;;;;;;5001804;28;20056;-81
2022/04/09 11:59:52;;;;;;;2.42;0.47;;;7.50;77.00;;;;;;5017072;28;20045;-82
2022/04/09 12:02:26;;;;;;;1.92;0.40;;;7.90;76.60;;;;;;5015147;28;20053;-81
2022/04/09 12:04:55;;;;;;;1.02;0.47;;;8.10;73.80;;;;;;5003089;28;20410;-82
2022/04/09 12:07:22;;;;;;;0.98;0.30;;;8.50;72.10;;;;;;5014953;28;20049;-81
2022/04/09 12:09:48;;;;;;;4.78;0.75;;;8.70;71.70;;;;;;5001184;28;20482;-81
2022/04/09 12:12:17;;;;;;;1.42;0.60;;;9.00;70.30;;;;;;4990575;28;20046;-82
2022/04/09 12:14:57;;;;;;;2.85;0.50;;;9.10;67.60;;;;;;5001127;28;20041;-82
2022/04/09 12:17:31;;;;;;;6.47;0.93;;;9.10;66.60;;;;;;4997373;28;20104;-82
2022/04/09 12:19:57;;;;;;;;;;;9.30;68.00;;;;;;5004125;28;20053;-82
2022/04/09 12:22:24;;;;;;;3.60;0.90;;;9.50;68.00;;;;;;5017352;28;19925;-82
2022/04/09 12:24:54;;;;;;;16.90;1.65;;;9.50;67.50;;;;;;4985279;28;20288;-82
2022/04/09 12:27:42;;;;;;;5.35;0.90;;;9.50;67.60;;;;;;5000659;28;20053;-82
2022/04/09 12:30:08;;;;;;;6.45;1.52;;;9.50;67.70;;;;;;5015430;28;20566;-81
2022/04/09 12:32:34;;;;;;;5.78;0.88;;;9.60;69.90;;;;;;5002329;28;20046;-80
2022/04/09 12:35:05;;;;;;;1.73;0.80;;;9.50;69.40;;;;;;5000231;28;20047;-80
2022/04/09 12:37:45;;;;;;;2.50;0.50;;;9.20;71.80;;;;;;5001737;28;20065;-80
2022/04/09 12:40:21;;;;;;;2.08;0.60;;;8.60;71.70;;;;;;5017721;28;20108;-80
2022/04/09 12:42:48;;;;;;;2.05;1.00;;;8.30;69.30;;;;;;5021377;28;20045;-80
2022/04/09 12:45:16;;;;;;;2.63;0.55;;;8.20;70.50;;;;;;5018831;28;20052;-80
2022/04/09 12:47:52;;;;;;;3.20;0.60;;;8.30;70.00;;;;;;5021341;28;20049;-80
2022/04/09 12:50:24;;;;;;;3.30;0.80;;;8.40;65.40;;;;;;5018139;28;20069;-82
2022/04/09 12:52:50;;;;;;;4.13;0.90;;;8.50;64.40;;;;;;5001437;28;20307;-81
2022/04/09 12:55:18;;;;;;;1.08;0.50;;;8.60;65.60;;;;;;5001710;28;20041;-82
2022/04/09 12:57:44;;;;;;;2.45;0.60;;;8.60;66.50;;;;;;4999775;28;20040;-82